createdAt,value
2022-10-13T00:00:51.223Z,-0.10
2022-10-13T00:03:18.889Z,-0.10
2022-10-13T00:05:48.097Z,-0.10
2022-10-13T00:08:19.381Z,-0.10
2022-10-13T00:10:48.634Z,-0.10
2022-10-13T00:13:16.309Z,-0.10
2022-10-13T00:15:45.487Z,-0.10
2022-10-13T00:18:13.202Z,-0.10
2022-10-13T00:20:45.855Z,-0.10
2022-10-13T00:23:14.037Z,-0.10
2022-10-13T00:25:46.071Z,-0.10
2022-10-13T00:28:14.125Z,-0.10
2022-10-13T00:30:41.599Z,-0.10
2022-10-13T00:33:09.987Z,-0.10
2022-10-13T00:35:45.461Z,-0.10
2022-10-13T00:38:12.792Z,-0.10
2022-10-13T00:40:54.379Z,-0.20
2022-10-13T00:43:22.689Z,-0.20
2022-10-13T00:45:50.929Z,-0.20
2022-10-13T00:48:30.000Z,-0.20
2022-10-13T00:50:58.706Z,-0.20
2022-10-13T00:53:30.707Z,-0.20
2022-10-13T00:55:57.649Z,-0.20
2022-10-13T00:58:31.344Z,-0.10
2022-10-13T01:00:59.102Z,-0.10
2022-10-13T01:03:26.532Z,-0.20
2022-10-13T01:05:57.377Z,-0.20
2022-10-13T01:08:27.041Z,-0.20
2022-10-13T01:11:09.357Z,-0.20
2022-10-13T01:13:42.056Z,-0.20
2022-10-13T01:16:24.250Z,-0.20
2022-10-13T01:18:57.293Z,-0.20
2022-10-13T01:21:39.542Z,-0.20
2022-10-13T01:24:39.720Z,-0.20
2022-10-13T01:27:27.884Z,-0.20
2022-10-13T01:30:14.569Z,-0.20
2022-10-13T01:32:53.610Z,-0.30
2022-10-13T01:35:52.276Z,-0.20
2022-10-13T01:38:56.740Z,-0.20
2022-10-13T01:41:35.669Z,-0.20
2022-10-13T01:44:17.162Z,-0.30
2022-10-13T01:46:46.282Z,-0.20
2022-10-13T01:49:16.431Z,-0.30
2022-10-13T01:51:45.085Z,-0.30
2022-10-13T01:54:11.966Z,-0.30
2022-10-13T01:56:38.836Z,-0.30
2022-10-13T01:59:11.526Z,-0.30
2022-10-13T02:01:57.335Z,-0.20
2022-10-13T02:04:35.962Z,-0.20
2022-10-13T02:07:18.017Z,0.00
2022-10-13T02:09:58.025Z,0.00
2022-10-13T02:12:34.638Z,0.00
2022-10-13T02:15:02.986Z,0.00
2022-10-13T02:17:31.847Z,-0.10
2022-10-13T02:19:59.478Z,-0.10
2022-10-13T02:22:32.464Z,-0.10
2022-10-13T02:24:59.995Z,-0.10
2022-10-13T02:27:27.033Z,-0.10
2022-10-13T02:29:56.431Z,-0.20
2022-10-13T02:32:23.518Z,-0.20
2022-10-13T02:34:51.350Z,-0.20
2022-10-13T02:37:18.469Z,-0.20
2022-10-13T02:39:45.388Z,-0.20
2022-10-13T02:42:12.547Z,-0.20
2022-10-13T02:44:40.226Z,-0.20
2022-10-13T02:47:07.164Z,-0.30
2022-10-13T02:49:34.073Z,-0.30
2022-10-13T02:52:00.920Z,-0.30
2022-10-13T02:54:28.371Z,-0.30
2022-10-13T02:56:55.210Z,-0.30
2022-10-13T02:59:22.071Z,-0.30
2022-10-13T03:01:48.912Z,-0.30
2022-10-13T03:04:15.750Z,-0.30
2022-10-13T03:06:42.613Z,-0.20
2022-10-13T03:09:09.490Z,-0.20
2022-10-13T03:11:36.399Z,-0.20
2022-10-13T03:14:03.278Z,-0.20
2022-10-13T03:16:30.182Z,-0.30
2022-10-13T03:18:57.038Z,-0.30
2022-10-13T03:21:24.015Z,-0.30
2022-10-13T03:23:51.178Z,-0.30
2022-10-13T03:26:18.132Z,-0.30
2022-10-13T03:28:52.218Z,-0.30
2022-10-13T03:31:19.290Z,-0.30
2022-10-13T03:33:46.283Z,-0.30
2022-10-13T03:36:13.715Z,-0.30
2022-10-13T03:38:40.705Z,-0.30
2022-10-13T03:41:13.348Z,-0.30
2022-10-13T03:43:41.301Z,-0.40
2022-10-13T03:46:10.694Z,-0.40
2022-10-13T03:48:38.270Z,-0.40
2022-10-13T03:51:10.528Z,-0.40
2022-10-13T03:53:38.054Z,-0.50
2022-10-13T03:56:05.835Z,-0.50
2022-10-13T03:58:32.912Z,-0.50
2022-10-13T04:01:05.365Z,-0.50
2022-10-13T04:03:33.362Z,-0.60
2022-10-13T04:06:02.044Z,-0.60
2022-10-13T04:08:30.255Z,-0.60
2022-10-13T04:11:07.297Z,-0.60
2022-10-13T04:13:34.432Z,-0.50
2022-10-13T04:16:06.929Z,-0.50
2022-10-13T04:18:34.096Z,-0.50
2022-10-13T04:21:01.775Z,-0.50
2022-10-13T04:23:28.618Z,-0.50
2022-10-13T04:25:56.587Z,-0.50
2022-10-13T04:28:23.465Z,-0.50
2022-10-13T04:30:50.487Z,-0.50
2022-10-13T04:33:17.392Z,-0.50
2022-10-13T04:35:44.283Z,-0.50
2022-10-13T04:38:11.145Z,-0.50
2022-10-13T04:40:38.019Z,-0.40
2022-10-13T04:43:04.891Z,-0.30
2022-10-13T04:45:31.805Z,-0.20
2022-10-13T04:48:00.559Z,-0.20
2022-10-13T04:50:27.480Z,-0.20
2022-10-13T04:52:54.358Z,-0.20
2022-10-13T04:55:21.216Z,-0.20
2022-10-13T04:57:48.083Z,-0.20
2022-10-13T05:00:15.152Z,-0.20
2022-10-13T05:02:42.022Z,-0.30
2022-10-13T05:05:09.457Z,-0.30
2022-10-13T05:07:36.345Z,-0.20
2022-10-13T05:10:04.055Z,-0.30
2022-10-13T05:12:30.922Z,-0.20
2022-10-13T05:14:58.962Z,-0.10
2022-10-13T05:17:25.902Z,0.10
2022-10-13T05:19:52.754Z,0.20
2022-10-13T05:22:19.847Z,0.40
2022-10-13T05:24:46.879Z,0.50
2022-10-13T05:27:14.339Z,0.60
2022-10-13T05:29:41.475Z,0.80
2022-10-13T05:32:08.584Z,0.90
2022-10-13T05:34:35.517Z,1.00
2022-10-13T05:37:02.476Z,1.10
2022-10-13T05:39:29.429Z,1.20
2022-10-13T05:41:56.317Z,1.40
2022-10-13T05:44:24.338Z,1.40
2022-10-13T05:46:51.231Z,1.60
2022-10-13T05:49:18.070Z,1.70
2022-10-13T05:51:48.937Z,1.90
2022-10-13T05:54:15.850Z,2.00
2022-10-13T05:56:52.068Z,2.20
2022-10-13T05:59:26.071Z,2.30
2022-10-13T06:01:54.524Z,2.50
2022-10-13T06:04:26.379Z,2.60
2022-10-13T06:06:53.241Z,2.70
2022-10-13T06:09:20.246Z,2.90
2022-10-13T06:11:47.104Z,3.00
2022-10-13T06:14:13.970Z,3.10
2022-10-13T06:16:41.528Z,3.30
2022-10-13T06:19:08.408Z,3.40
2022-10-13T06:21:35.958Z,3.50
2022-10-13T06:24:03.266Z,3.60
2022-10-13T06:26:30.216Z,3.70
2022-10-13T06:28:59.741Z,3.90
2022-10-13T06:31:27.560Z,4.00
2022-10-13T06:33:54.647Z,4.10
2022-10-13T06:36:21.600Z,4.20
2022-10-13T06:38:48.545Z,4.30
2022-10-13T06:41:15.562Z,4.40
2022-10-13T06:43:42.525Z,4.50
2022-10-13T06:46:10.086Z,4.50
2022-10-13T06:48:37.051Z,4.60
2022-10-13T06:51:07.026Z,4.60
2022-10-13T06:53:34.349Z,4.70
2022-10-13T06:56:03.320Z,4.80
2022-10-13T06:58:30.912Z,4.90
2022-10-13T07:00:57.921Z,4.90
2022-10-13T07:03:25.396Z,5.00
2022-10-13T07:05:53.172Z,5.20
2022-10-13T07:08:20.640Z,5.30
2022-10-13T07:10:47.727Z,5.30
2022-10-13T07:13:14.685Z,5.50
2022-10-13T07:15:41.712Z,5.50
2022-10-13T07:18:08.938Z,5.50
2022-10-13T07:20:36.212Z,5.60
2022-10-13T07:23:03.394Z,5.80
2022-10-13T07:25:30.706Z,5.90
2022-10-13T07:27:59.452Z,6.00
2022-10-13T07:30:27.374Z,6.10
2022-10-13T07:32:54.302Z,6.20
2022-10-13T07:35:24.784Z,6.30
2022-10-13T07:37:55.369Z,6.40
2022-10-13T07:40:22.705Z,6.50
2022-10-13T07:42:49.603Z,6.60
2022-10-13T07:45:16.633Z,6.80
2022-10-13T07:47:43.548Z,6.90
2022-10-13T07:50:10.759Z,7.10
2022-10-13T07:52:37.891Z,7.30
2022-10-13T07:55:05.299Z,7.50
2022-10-13T07:57:32.261Z,7.50
2022-10-13T07:59:59.169Z,7.70
2022-10-13T08:02:26.467Z,7.80
2022-10-13T08:04:53.405Z,8.00
2022-10-13T08:07:20.695Z,8.20
2022-10-13T08:09:47.862Z,8.30
2022-10-13T08:12:14.857Z,8.40
2022-10-13T08:14:42.194Z,8.60
2022-10-13T08:17:09.273Z,8.70
2022-10-13T08:19:36.299Z,8.80
2022-10-13T08:22:05.534Z,9.00
2022-10-13T08:24:36.327Z,9.30
2022-10-13T08:27:03.699Z,9.40
2022-10-13T08:29:30.685Z,9.60
2022-10-13T08:31:57.710Z,9.80
2022-10-13T08:34:25.704Z,9.90
2022-10-13T08:36:56.404Z,10.00
2022-10-13T08:39:24.937Z,9.90
2022-10-13T08:41:52.170Z,9.90
2022-10-13T08:47:27.987Z,9.90
2022-10-13T08:50:02.117Z,10.00
2022-10-13T08:52:43.467Z,10.10
2022-10-13T08:55:44.754Z,10.10
2022-10-13T08:58:20.695Z,10.10
2022-10-13T09:00:47.631Z,10.10
2022-10-13T09:03:26.593Z,10.10
2022-10-13T09:06:21.689Z,10.20
2022-10-13T09:09:01.938Z,10.40
2022-10-13T09:11:33.700Z,10.60
2022-10-13T09:14:03.853Z,10.80
2022-10-13T09:16:39.051Z,11.00
2022-10-13T09:19:26.132Z,11.20
2022-10-13T09:22:13.110Z,11.20
2022-10-13T09:24:40.401Z,11.10
2022-10-13T09:27:17.017Z,11.00
2022-10-13T09:29:45.281Z,10.90
2022-10-13T09:32:14.932Z,10.80
2022-10-13T09:34:41.934Z,10.60
2022-10-13T09:37:29.081Z,10.60
2022-10-13T09:40:13.696Z,10.70
2022-10-13T09:42:41.029Z,10.80
2022-10-13T09:45:17.431Z,10.90
2022-10-13T09:47:59.918Z,11.20
2022-10-13T09:50:32.065Z,11.50
2022-10-13T09:53:23.924Z,11.80
2022-10-13T09:56:18.755Z,12.10
2022-10-13T09:58:54.207Z,12.30
2022-10-13T10:01:35.150Z,12.60
2022-10-13T10:04:06.943Z,12.80
2022-10-13T10:06:34.946Z,12.90
2022-10-13T10:09:22.755Z,13.00
2022-10-13T10:11:53.470Z,13.10
2022-10-13T10:14:34.015Z,13.40
2022-10-13T10:17:18.705Z,13.50
2022-10-13T10:20:03.914Z,13.50
2022-10-13T10:22:54.634Z,13.40
2022-10-13T10:25:37.409Z,13.30
2022-10-13T10:28:42.661Z,13.20
2022-10-13T10:31:35.407Z,13.20
2022-10-13T10:34:20.343Z,13.20
2022-10-13T10:36:57.495Z,13.30
2022-10-13T10:39:36.874Z,13.30
2022-10-13T10:42:20.640Z,13.10
2022-10-13T10:44:51.190Z,13.10
2022-10-13T10:47:30.351Z,13.30
2022-10-13T10:50:02.646Z,13.40
2022-10-13T10:52:53.322Z,13.60
2022-10-13T10:55:34.095Z,13.70
2022-10-13T10:58:22.594Z,13.80
2022-10-13T11:00:59.753Z,13.80
2022-10-13T11:03:47.109Z,13.80
2022-10-13T11:06:17.055Z,13.80
2022-10-13T11:08:49.349Z,13.80
2022-10-13T11:11:29.256Z,13.70
2022-10-13T11:14:05.973Z,13.80
2022-10-13T11:16:41.669Z,13.70
2022-10-13T11:19:08.826Z,13.70
2022-10-13T11:22:02.053Z,13.60
2022-10-13T11:24:39.072Z,13.50
2022-10-13T11:27:11.726Z,13.40
2022-10-13T11:29:45.749Z,13.30
2022-10-13T11:32:28.188Z,13.20
2022-10-13T11:35:07.118Z,13.20
2022-10-13T11:38:17.741Z,13.20
2022-10-13T11:40:57.150Z,13.10
2022-10-13T11:43:32.960Z,13.10
2022-10-13T11:46:02.907Z,13.00
2022-10-13T11:48:53.677Z,13.00
2022-10-13T11:51:29.439Z,13.00
2022-10-13T11:54:08.532Z,12.90
2022-10-13T11:56:51.176Z,12.90
2022-10-13T11:59:45.193Z,12.80
2022-10-13T12:02:16.000Z,12.60
2022-10-13T12:04:59.533Z,12.50
2022-10-13T12:07:32.136Z,12.40
2022-10-13T12:09:59.323Z,12.40
2022-10-13T12:12:26.823Z,12.30
2022-10-13T12:14:59.895Z,12.30
2022-10-13T12:17:39.147Z,12.30
2022-10-13T12:20:24.817Z,12.30
2022-10-13T12:22:53.532Z,12.30
2022-10-13T12:25:23.343Z,12.40
2022-10-13T12:27:57.919Z,12.40
2022-10-13T12:30:29.649Z,12.50
2022-10-13T12:32:59.843Z,12.50
2022-10-13T12:35:30.507Z,12.50
2022-10-13T12:38:01.426Z,12.50
2022-10-13T12:40:29.086Z,12.60
2022-10-13T12:42:56.216Z,12.60
2022-10-13T12:45:28.272Z,12.50
2022-10-13T12:47:55.913Z,12.50
2022-10-13T12:50:27.504Z,12.60
2022-10-13T12:53:19.251Z,12.70
2022-10-13T12:56:01.307Z,12.80
2022-10-13T12:58:32.355Z,12.90
2022-10-13T13:01:09.713Z,12.90
2022-10-13T13:03:38.823Z,13.00
2022-10-13T13:06:08.892Z,13.10
2022-10-13T13:08:35.867Z,13.20
2022-10-13T13:11:07.112Z,13.10
2022-10-13T13:13:34.718Z,13.10
2022-10-13T13:16:16.874Z,13.00
2022-10-13T13:18:46.897Z,12.90
2022-10-13T13:21:16.123Z,12.80
2022-10-13T13:23:51.027Z,12.80
2022-10-13T13:26:22.995Z,12.80
2022-10-13T13:28:57.035Z,12.80
2022-10-13T13:31:25.974Z,12.80
2022-10-13T13:33:53.143Z,12.70
2022-10-13T13:36:22.997Z,12.70
2022-10-13T13:38:51.013Z,12.60
2022-10-13T13:41:18.306Z,12.60
2022-10-13T13:43:45.258Z,12.50
2022-10-13T13:46:23.939Z,12.40
2022-10-13T13:48:51.803Z,12.40
2022-10-13T13:51:19.010Z,12.30
2022-10-13T13:53:46.392Z,12.20
2022-10-13T13:56:20.158Z,12.20
2022-10-13T13:58:48.398Z,12.20
2022-10-13T14:01:16.002Z,12.10
2022-10-13T14:03:43.297Z,12.00
2022-10-13T14:06:17.966Z,11.90
2022-10-13T14:08:45.037Z,11.90
2022-10-13T14:11:12.118Z,11.90
2022-10-13T14:13:39.010Z,11.80
2022-10-13T14:16:06.235Z,11.80
2022-10-13T14:18:33.378Z,11.70
2022-10-13T14:21:00.413Z,11.70
2022-10-13T14:23:27.447Z,11.70
2022-10-13T14:25:54.370Z,11.70
2022-10-13T14:28:21.362Z,11.60
2022-10-13T14:30:48.341Z,11.60
2022-10-13T14:33:19.458Z,11.60
2022-10-13T14:35:47.176Z,11.70
2022-10-13T14:38:14.750Z,11.70
2022-10-13T14:40:42.412Z,11.60
2022-10-13T14:43:09.423Z,11.70
2022-10-13T14:45:36.334Z,11.60
2022-10-13T14:48:03.518Z,11.60
2022-10-13T14:50:30.365Z,11.50
2022-10-13T14:52:57.271Z,11.50
2022-10-13T14:55:24.225Z,11.50
2022-10-13T14:57:51.187Z,11.50
2022-10-13T15:00:18.222Z,11.40
2022-10-13T15:02:45.137Z,11.30
2022-10-13T15:05:12.073Z,11.20
2022-10-13T15:07:41.099Z,11.20
2022-10-13T15:10:09.668Z,11.10
2022-10-13T15:12:36.682Z,11.00
2022-10-13T15:15:04.131Z,11.00
2022-10-13T15:17:33.362Z,10.90
2022-10-13T15:20:00.707Z,10.90
2022-10-13T15:22:27.591Z,10.80
2022-10-13T15:24:54.716Z,10.80
2022-10-13T15:27:21.723Z,10.80
2022-10-13T15:29:48.663Z,10.70
2022-10-13T15:32:18.549Z,10.70
2022-10-13T15:34:45.833Z,10.70
2022-10-13T15:37:13.285Z,10.70
2022-10-13T15:39:40.347Z,10.70
2022-10-13T15:42:07.254Z,10.60
2022-10-13T15:44:57.457Z,10.60
2022-10-13T15:47:21.127Z,10.60
2022-10-13T15:49:48.269Z,10.60
2022-10-13T15:52:15.421Z,10.60
2022-10-13T15:54:42.527Z,10.50
2022-10-13T15:57:09.509Z,10.60
2022-10-13T15:59:36.519Z,10.50
2022-10-13T16:02:03.427Z,10.50
2022-10-13T16:04:34.853Z,10.40
2022-10-13T16:07:04.167Z,10.40
2022-10-13T16:09:31.303Z,10.40
2022-10-13T16:11:58.251Z,10.30
2022-10-13T16:14:25.322Z,10.30
2022-10-13T16:16:52.375Z,10.30
2022-10-13T16:19:19.350Z,10.30
2022-10-13T16:21:47.086Z,10.30
2022-10-13T16:24:14.199Z,10.20
2022-10-13T16:26:41.158Z,10.20
2022-10-13T16:29:08.216Z,10.20
2022-10-13T16:31:35.194Z,10.20
2022-10-13T16:34:02.292Z,10.20
2022-10-13T16:36:29.240Z,10.20
2022-10-13T16:38:56.710Z,10.10
2022-10-13T16:41:24.036Z,10.10
2022-10-13T16:43:51.021Z,10.10
2022-10-13T16:46:19.758Z,10.10
2022-10-13T16:48:47.444Z,10.10
2022-10-13T16:51:20.776Z,10.10
2022-10-13T16:53:49.674Z,10.10
2022-10-13T16:56:22.088Z,10.10
2022-10-13T16:59:02.576Z,10.20
2022-10-13T17:01:30.705Z,10.10
2022-10-13T17:03:58.113Z,10.10
2022-10-13T17:06:27.434Z,10.10
2022-10-13T17:08:54.921Z,10.10
2022-10-13T17:11:24.267Z,10.10
2022-10-13T17:13:52.025Z,10.10
2022-10-13T17:16:19.678Z,10.10
2022-10-13T17:18:46.639Z,10.00
2022-10-13T17:21:15.972Z,10.00
2022-10-13T17:23:48.125Z,10.00
2022-10-13T17:26:16.279Z,10.00
2022-10-13T17:28:43.397Z,10.00
2022-10-13T17:31:17.642Z,10.00
2022-10-13T17:33:45.510Z,10.00
2022-10-13T17:36:38.789Z,10.00
2022-10-13T17:39:08.511Z,10.00
2022-10-13T17:41:35.699Z,10.00
2022-10-13T17:44:02.711Z,9.90
2022-10-13T17:46:37.396Z,9.90
2022-10-13T17:49:05.923Z,9.90
2022-10-13T17:51:32.846Z,9.90
2022-10-13T17:54:00.398Z,9.90
2022-10-13T17:56:27.957Z,9.90
2022-10-13T17:58:55.065Z,9.90
2022-10-13T18:01:26.577Z,10.00
2022-10-13T18:04:03.750Z,10.00
2022-10-13T18:06:38.021Z,9.90
2022-10-13T18:09:07.622Z,10.00
2022-10-13T18:11:34.902Z,9.90
2022-10-13T18:14:02.123Z,9.90
2022-10-13T18:16:29.005Z,9.90
2022-10-13T18:18:56.059Z,10.00
2022-10-13T18:21:26.927Z,9.90
2022-10-13T18:23:55.973Z,10.00
2022-10-13T18:26:24.050Z,10.00
2022-10-13T18:28:52.252Z,10.00
2022-10-13T18:31:28.656Z,10.00
2022-10-13T18:33:57.181Z,10.00
2022-10-13T18:36:26.860Z,10.00
2022-10-13T18:38:54.963Z,10.00
2022-10-13T18:41:24.060Z,10.00
2022-10-13T18:43:51.637Z,10.00
2022-10-13T18:46:19.255Z,10.00
2022-10-13T18:48:46.462Z,10.00
2022-10-13T18:51:15.700Z,10.00
2022-10-13T18:53:44.525Z,10.00
2022-10-13T18:56:19.931Z,10.00
2022-10-13T18:58:47.324Z,10.00
2022-10-13T19:01:17.555Z,10.00
2022-10-13T19:03:44.815Z,10.00
2022-10-13T19:06:13.988Z,10.00
2022-10-13T19:08:41.250Z,10.00
2022-10-13T19:11:18.240Z,9.90
2022-10-13T19:13:45.751Z,9.90
2022-10-13T19:16:14.380Z,9.90
2022-10-13T19:18:41.487Z,9.90
2022-10-13T19:21:09.136Z,9.90
2022-10-13T19:23:36.203Z,9.90
2022-10-13T19:26:28.416Z,9.90
2022-10-13T19:29:09.526Z,9.90
2022-10-13T19:31:36.736Z,9.90
2022-10-13T19:34:04.386Z,9.90
2022-10-13T19:36:34.063Z,9.90
2022-10-13T19:39:03.720Z,9.90
2022-10-13T19:41:33.175Z,9.90
2022-10-13T19:44:00.782Z,9.90
2022-10-13T19:46:28.235Z,9.90
2022-10-13T19:48:55.242Z,9.90
2022-10-13T19:51:22.139Z,9.90
2022-10-13T19:53:49.034Z,9.90
2022-10-13T19:56:23.691Z,9.90
2022-10-13T19:58:52.087Z,9.90
2022-10-13T20:01:20.011Z,9.90
2022-10-13T20:03:47.677Z,9.90
2022-10-13T20:06:15.238Z,9.90
2022-10-13T20:08:42.294Z,9.90
2022-10-13T20:11:17.291Z,9.90
2022-10-13T20:13:47.897Z,9.90
2022-10-13T20:16:18.217Z,9.90
2022-10-13T20:18:45.419Z,9.90
2022-10-13T20:21:13.211Z,9.90
2022-10-13T20:23:41.064Z,9.90
2022-10-13T20:26:11.129Z,9.90
2022-10-13T20:28:43.084Z,9.90
2022-10-13T20:31:14.701Z,9.90
2022-10-13T20:33:42.139Z,9.90
2022-10-13T20:36:12.577Z,9.90
2022-10-13T20:38:39.722Z,9.90
2022-10-13T20:41:09.450Z,9.90
2022-10-13T20:43:37.144Z,9.90
2022-10-13T20:46:06.698Z,9.90
2022-10-13T20:49:05.162Z,10.00
2022-10-13T20:51:23.987Z,10.00
2022-10-13T20:53:51.239Z,10.00
2022-10-13T20:56:24.222Z,10.00
2022-10-13T20:58:51.720Z,10.00
2022-10-13T21:01:21.179Z,10.00
2022-10-13T21:03:52.385Z,10.00
2022-10-13T21:06:19.367Z,10.00
2022-10-13T21:08:47.378Z,10.00
2022-10-13T21:11:16.488Z,10.00
2022-10-13T21:13:44.305Z,10.00
2022-10-13T21:16:14.119Z,9.90
2022-10-13T21:18:43.854Z,9.90
2022-10-13T21:21:11.499Z,9.90
2022-10-13T21:23:38.582Z,9.90
2022-10-13T21:26:07.678Z,9.90
2022-10-13T21:28:37.321Z,9.90
2022-10-13T21:31:06.993Z,9.90
2022-10-13T21:33:35.824Z,9.80
2022-10-13T21:36:08.886Z,9.80
2022-10-13T21:38:36.162Z,9.80
2022-10-13T21:41:07.346Z,9.80
2022-10-13T21:43:34.733Z,9.80
2022-10-13T21:46:13.204Z,9.80
2022-10-13T21:48:40.392Z,9.80
2022-10-13T21:51:13.976Z,9.80
2022-10-13T21:53:41.119Z,9.80
2022-10-13T21:56:10.032Z,9.80
2022-10-13T21:58:37.378Z,9.80
2022-10-13T22:01:05.813Z,9.80
2022-10-13T22:03:33.619Z,9.80
2022-10-13T22:06:05.904Z,9.70
2022-10-13T22:08:38.418Z,9.80
2022-10-13T22:11:07.341Z,9.80
2022-10-13T22:13:34.466Z,9.80
2022-10-13T22:16:10.249Z,9.80
2022-10-13T22:18:37.284Z,9.80
2022-10-13T22:21:06.303Z,9.80
2022-10-13T22:23:33.348Z,9.70
2022-10-13T22:26:00.393Z,9.70
2022-10-13T22:28:27.364Z,9.80
2022-10-13T22:30:54.292Z,9.70
2022-10-13T22:33:21.259Z,9.70
2022-10-13T22:35:48.197Z,9.70
2022-10-13T22:38:15.442Z,9.70
2022-10-13T22:40:42.474Z,9.70
2022-10-13T22:43:09.544Z,9.70
2022-10-13T22:45:36.429Z,9.70
2022-10-13T22:48:03.472Z,9.70
2022-10-13T22:50:30.359Z,9.80
2022-10-13T22:52:57.314Z,9.80
2022-10-13T22:55:24.222Z,9.80
2022-10-13T22:57:51.152Z,9.80
2022-10-13T23:00:18.269Z,9.80
2022-10-13T23:02:45.158Z,9.90
2022-10-13T23:05:12.043Z,9.90
2022-10-13T23:07:38.910Z,9.90
2022-10-13T23:10:06.397Z,9.80
2022-10-13T23:12:33.334Z,9.80
2022-10-13T23:15:00.240Z,9.80
2022-10-13T23:17:27.119Z,9.80
2022-10-13T23:19:54.113Z,9.80
2022-10-13T23:22:21.010Z,9.80
2022-10-13T23:24:47.931Z,9.80
2022-10-13T23:27:14.899Z,9.80
2022-10-13T23:29:41.782Z,9.80
2022-10-13T23:32:09.978Z,9.90
2022-10-13T23:34:37.062Z,9.90
2022-10-13T23:37:03.985Z,9.80
2022-10-13T23:39:31.250Z,9.80
2022-10-13T23:41:58.442Z,9.80
2022-10-13T23:44:25.636Z,9.80
2022-10-13T23:46:52.628Z,9.80
2022-10-13T23:49:19.522Z,9.80
2022-10-13T23:51:46.438Z,9.90
2022-10-13T23:54:13.461Z,9.90
2022-10-13T23:56:40.499Z,9.90
2022-10-13T23:59:07.487Z,9.90
